createdAt,value
2023-03-22T00:04:19.194Z,67.80
2023-03-22T00:06:50.162Z,62.80
2023-03-22T00:09:18.093Z,72.10
2023-03-22T00:11:50.387Z,57.30
2023-03-22T00:14:18.171Z,58.40
2023-03-22T00:16:47.242Z,59.10
2023-03-22T00:19:18.699Z,53.50
2023-03-22T00:21:47.247Z,45.30
2023-03-22T00:24:20.625Z,48.40
2023-03-22T00:26:52.455Z,57.90
2023-03-22T00:29:23.643Z,49.80
2023-03-22T00:31:57.667Z,53.90
2023-03-22T00:34:32.188Z,53.20
2023-03-22T00:37:01.997Z,50.30
2023-03-22T00:39:31.962Z,44.80
2023-03-22T00:42:01.738Z,49.30
2023-03-22T00:44:55.254Z,51.20
2023-03-22T00:47:36.007Z,50.70
2023-03-22T00:50:13.404Z,43.30
2023-03-22T00:52:46.916Z,45.60
2023-03-22T00:55:19.734Z,44.30
2023-03-22T00:57:48.542Z,46.80
2023-03-22T01:00:20.266Z,48.00
2023-03-22T01:02:48.858Z,42.10
2023-03-22T01:05:25.661Z,44.40
2023-03-22T01:07:56.388Z,41.00
2023-03-22T01:10:34.522Z,44.50
2023-03-22T01:13:04.415Z,46.20
2023-03-22T01:15:34.306Z,45.50
2023-03-22T01:18:05.494Z,47.00
2023-03-22T01:20:46.806Z,38.60
2023-03-22T01:23:18.719Z,46.20
2023-03-22T01:25:50.292Z,49.40
2023-03-22T01:28:25.206Z,41.70
2023-03-22T01:31:01.633Z,39.80
2023-03-22T01:33:31.265Z,47.00
2023-03-22T01:35:58.960Z,44.00
2023-03-22T01:38:31.660Z,43.90
2023-03-22T01:41:03.568Z,41.90
2023-03-22T01:43:37.600Z,43.30
2023-03-22T01:46:06.429Z,38.20
2023-03-22T01:48:45.427Z,47.30
2023-03-22T01:51:19.494Z,41.80
2023-03-22T01:54:18.489Z,47.90
2023-03-22T01:56:50.478Z,39.90
2023-03-22T01:59:27.354Z,44.40
2023-03-22T02:02:07.713Z,37.60
2023-03-22T02:04:41.067Z,38.90
2023-03-22T02:07:15.014Z,49.20
2023-03-22T02:09:47.626Z,42.80
2023-03-22T02:15:12.064Z,41.60
2023-03-22T02:18:11.880Z,45.30
2023-03-22T02:21:02.649Z,42.60
2023-03-22T02:23:54.888Z,36.90
2023-03-22T02:26:41.057Z,38.00
2023-03-22T02:29:25.873Z,39.80
2023-03-22T02:32:16.062Z,40.10
2023-03-22T02:35:05.624Z,43.50
2023-03-22T02:38:03.234Z,39.40
2023-03-22T02:40:45.337Z,36.70
2023-03-22T02:43:38.060Z,38.60
2023-03-22T02:46:12.851Z,40.10
2023-03-22T02:49:27.090Z,31.20
2023-03-22T02:51:59.874Z,33.00
2023-03-22T02:54:44.501Z,36.00
2023-03-22T02:57:20.649Z,37.30
2023-03-22T02:59:49.422Z,34.50
2023-03-22T03:02:17.993Z,34.50
2023-03-22T03:04:48.759Z,37.20
2023-03-22T03:07:21.347Z,35.60
2023-03-22T03:09:50.287Z,33.50
2023-03-22T03:12:25.787Z,35.30
2023-03-22T03:14:56.908Z,35.50
2023-03-22T03:17:57.817Z,29.90
2023-03-22T03:21:09.306Z,33.00
2023-03-22T03:23:53.771Z,33.00
2023-03-22T03:26:30.765Z,33.90
2023-03-22T03:29:42.211Z,32.80
2023-03-22T03:32:19.649Z,36.00
2023-03-22T03:34:52.549Z,31.40
2023-03-22T03:37:23.925Z,33.30
2023-03-22T03:40:04.883Z,32.00
2023-03-22T03:42:33.203Z,34.80
2023-03-22T03:45:00.439Z,38.90
2023-03-22T03:47:30.635Z,37.30
2023-03-22T03:49:59.047Z,36.90
2023-03-22T03:52:32.574Z,36.10
2023-03-22T03:55:02.725Z,35.10
2023-03-22T03:57:38.081Z,35.10
2023-03-22T04:00:09.749Z,34.80
2023-03-22T04:02:56.739Z,34.00
2023-03-22T04:05:40.964Z,37.90
2023-03-22T04:08:10.578Z,35.20
2023-03-22T04:10:40.565Z,34.50
2023-03-22T04:13:13.334Z,34.00
2023-03-22T04:15:42.224Z,34.20
2023-03-22T04:18:19.255Z,36.90
2023-03-22T04:20:49.632Z,39.70
2023-03-22T04:23:27.852Z,37.40
2023-03-22T04:25:59.693Z,32.50
2023-03-22T04:28:37.015Z,36.60
2023-03-22T04:31:09.436Z,35.90
2023-03-22T04:34:05.070Z,35.20
2023-03-22T04:37:08.317Z,36.80
2023-03-22T04:39:50.904Z,36.00
2023-03-22T04:42:35.754Z,36.80
2023-03-22T04:45:13.104Z,35.20
2023-03-22T04:47:42.947Z,34.40
2023-03-22T04:50:12.725Z,36.40
2023-03-22T04:52:50.897Z,34.50
2023-03-22T04:55:21.953Z,37.20
2023-03-22T04:57:54.160Z,36.60
2023-03-22T05:00:29.595Z,37.30
2023-03-22T05:02:58.998Z,32.00
2023-03-22T05:05:55.451Z,33.90
2023-03-22T05:08:25.919Z,34.00
2023-03-22T05:10:55.581Z,31.30
2023-03-22T05:13:26.865Z,39.70
2023-03-22T05:16:06.797Z,37.30
2023-03-22T05:18:44.886Z,37.70
2023-03-22T05:21:15.107Z,37.10
2023-03-22T05:23:51.403Z,34.10
2023-03-22T05:26:25.730Z,34.70
2023-03-22T05:28:57.869Z,35.50
2023-03-22T05:31:41.831Z,32.60
2023-03-22T05:34:14.820Z,35.40
2023-03-22T05:36:45.979Z,29.60
2023-03-22T05:39:30.246Z,30.40
2023-03-22T05:42:01.163Z,33.90
2023-03-22T05:44:28.609Z,32.00
2023-03-22T05:47:08.859Z,28.70
2023-03-22T05:49:58.095Z,30.30
2023-03-22T05:52:27.331Z,34.80
2023-03-22T05:55:17.143Z,29.60
2023-03-22T05:57:47.259Z,29.70
2023-03-22T06:00:19.937Z,32.60
2023-03-22T06:03:21.222Z,31.00
2023-03-22T06:06:02.041Z,27.90
2023-03-22T06:08:39.924Z,28.60
2023-03-22T06:11:13.713Z,26.90
2023-03-22T06:13:42.583Z,28.50
2023-03-22T06:16:12.032Z,29.20
2023-03-22T06:18:41.642Z,30.00
2023-03-22T06:21:17.384Z,28.20
2023-03-22T06:23:47.213Z,31.40
2023-03-22T06:26:19.452Z,28.80
2023-03-22T06:28:56.945Z,30.10
2023-03-22T06:31:26.966Z,26.60
2023-03-22T06:34:01.239Z,32.50
2023-03-22T06:36:46.652Z,27.90
2023-03-22T06:39:26.444Z,28.40
2023-03-22T06:41:55.372Z,29.30
2023-03-22T06:44:28.966Z,25.20
2023-03-22T06:47:11.339Z,29.50
2023-03-22T06:49:47.965Z,25.80
2023-03-22T06:52:27.369Z,27.10
2023-03-22T06:57:38.513Z,28.20
2023-03-22T07:02:41.629Z,29.10
2023-03-22T07:05:41.051Z,27.80
2023-03-22T07:08:10.878Z,29.80
2023-03-22T07:10:50.932Z,25.80
2023-03-22T07:13:21.957Z,28.70
2023-03-22T07:15:51.923Z,29.30
2023-03-22T07:18:41.447Z,28.20
2023-03-22T07:21:15.256Z,26.80
2023-03-22T07:23:49.856Z,28.30
2023-03-22T07:26:20.190Z,26.00
2023-03-22T07:28:54.040Z,27.20
2023-03-22T07:31:46.342Z,27.80
2023-03-22T07:34:27.179Z,27.00
2023-03-22T07:37:17.232Z,27.30
2023-03-22T07:39:58.152Z,30.00
2023-03-22T07:42:30.849Z,26.80
2023-03-22T07:45:22.976Z,25.40
2023-03-22T07:48:35.995Z,32.20
2023-03-22T07:54:12.643Z,28.70
2023-03-22T07:56:45.172Z,30.70
2023-03-22T07:59:20.543Z,25.90
2023-03-22T08:01:53.249Z,26.50
2023-03-22T08:04:31.448Z,27.80
2023-03-22T08:07:14.146Z,26.30
2023-03-22T08:09:49.211Z,26.50
2023-03-22T08:12:23.272Z,30.50
2023-03-22T08:15:23.429Z,29.70
2023-03-22T08:18:12.119Z,28.60
2023-03-22T08:20:43.968Z,31.40
2023-03-22T08:23:40.486Z,25.80
2023-03-22T08:26:50.143Z,25.40
2023-03-22T08:29:41.102Z,28.30
2023-03-22T08:32:17.550Z,25.00
2023-03-22T08:34:49.158Z,25.60
2023-03-22T08:37:26.947Z,30.00
2023-03-22T08:39:56.845Z,28.80
2023-03-22T08:42:38.612Z,27.80
2023-03-22T08:45:12.613Z,27.40
2023-03-22T08:47:52.320Z,27.20
2023-03-22T08:50:24.294Z,26.70
2023-03-22T08:53:02.956Z,28.80
2023-03-22T08:55:44.357Z,28.50
2023-03-22T08:58:26.443Z,29.90
2023-03-22T09:01:26.510Z,27.80
2023-03-22T09:04:20.199Z,32.80
2023-03-22T09:06:55.523Z,27.60
2023-03-22T09:09:26.433Z,27.60
2023-03-22T09:11:54.600Z,28.90
2023-03-22T09:14:26.462Z,31.40
2023-03-22T09:17:00.800Z,32.80
2023-03-22T09:19:29.414Z,29.80
2023-03-22T09:21:58.173Z,30.50
2023-03-22T09:24:42.186Z,29.70
2023-03-22T09:27:12.396Z,29.40
2023-03-22T09:29:41.842Z,31.60
2023-03-22T09:32:17.500Z,28.10
2023-03-22T09:34:55.071Z,28.30
2023-03-22T09:37:30.377Z,29.90
2023-03-22T09:40:00.501Z,26.10
2023-03-22T09:42:42.554Z,28.40
2023-03-22T09:45:17.863Z,29.00
2023-03-22T09:47:50.715Z,29.80
2023-03-22T09:50:32.362Z,25.60
2023-03-22T09:53:02.701Z,28.90
2023-03-22T09:55:39.072Z,27.30
2023-03-22T09:58:25.890Z,29.70
2023-03-22T10:01:05.859Z,27.90
2023-03-22T10:04:03.571Z,27.90
2023-03-22T10:07:12.908Z,27.20
2023-03-22T10:10:17.920Z,28.90
2023-03-22T10:13:00.503Z,29.20
2023-03-22T10:15:38.894Z,25.30
2023-03-22T10:18:09.491Z,24.80
2023-03-22T10:21:11.510Z,26.90
2023-03-22T10:23:47.214Z,24.10
2023-03-22T10:27:43.435Z,24.20
2023-03-22T10:33:14.012Z,25.90
2023-03-22T10:35:53.225Z,22.80
2023-03-22T10:38:27.211Z,24.40
2023-03-22T10:41:06.351Z,21.60
2023-03-22T10:43:41.061Z,24.30
2023-03-22T10:46:17.308Z,21.90
2023-03-22T10:48:49.136Z,22.20
2023-03-22T10:51:36.538Z,24.70
2023-03-22T10:54:12.051Z,24.90
2023-03-22T10:56:41.528Z,20.30
2023-03-22T10:59:53.155Z,23.10
2023-03-22T11:02:31.318Z,23.10
2023-03-22T11:05:03.062Z,22.80
2023-03-22T11:07:43.715Z,26.10
2023-03-22T11:10:15.679Z,28.30
2023-03-22T11:13:10.857Z,25.20
2023-03-22T11:15:49.558Z,22.70
2023-03-22T11:18:20.731Z,25.90
2023-03-22T11:23:32.082Z,30.40
2023-03-22T11:34:48.259Z,27.20
2023-03-22T11:37:19.671Z,25.10
2023-03-22T11:40:02.345Z,24.90
2023-03-22T11:42:37.099Z,26.30
2023-03-22T11:45:12.417Z,29.20
2023-03-22T11:47:54.830Z,26.10
2023-03-22T11:50:33.308Z,24.90
2023-03-22T11:53:07.552Z,23.40
2023-03-22T11:55:40.387Z,25.60
2023-03-22T11:58:39.368Z,27.00
2023-03-22T12:01:13.117Z,26.80
2023-03-22T12:03:44.129Z,27.90
2023-03-22T12:06:21.918Z,28.10
2023-03-22T12:09:07.107Z,29.60
2023-03-22T12:11:53.434Z,29.00
2023-03-22T12:14:54.551Z,29.80
2023-03-22T12:17:36.380Z,30.00
2023-03-22T12:20:51.524Z,28.20
2023-03-22T12:23:51.947Z,31.30
2023-03-22T12:26:30.382Z,25.70
2023-03-22T12:29:06.802Z,26.10
2023-03-22T12:31:52.859Z,32.00
2023-03-22T12:34:32.463Z,44.20
2023-03-22T12:37:10.967Z,28.80
2023-03-22T12:40:01.223Z,27.40
2023-03-22T12:43:08.019Z,28.50
2023-03-22T12:45:53.383Z,27.60
2023-03-22T12:48:35.628Z,30.90
2023-03-22T12:51:13.904Z,28.60
2023-03-22T12:53:53.917Z,29.80
2023-03-22T12:56:44.062Z,38.30
2023-03-22T12:59:29.042Z,33.90
2023-03-22T13:02:10.209Z,29.60
2023-03-22T13:04:53.836Z,25.30
2023-03-22T13:07:36.114Z,26.00
2023-03-22T13:10:32.700Z,27.90
2023-03-22T13:13:24.549Z,27.70
2023-03-22T13:15:59.873Z,23.60
2023-03-22T13:18:54.257Z,27.70
2023-03-22T13:21:29.886Z,21.10
2023-03-22T13:24:10.607Z,26.50
2023-03-22T13:27:20.194Z,25.20
2023-03-22T13:29:54.304Z,23.20
2023-03-22T13:32:33.571Z,22.00
2023-03-22T13:35:23.949Z,24.80
2023-03-22T13:38:29.206Z,25.50
2023-03-22T13:41:28.287Z,23.30
2023-03-22T13:44:20.513Z,22.60
2023-03-22T13:47:02.010Z,20.20
2023-03-22T13:49:55.213Z,20.30
2023-03-22T13:52:33.717Z,21.60
2023-03-22T13:55:04.905Z,22.20
2023-03-22T13:57:50.352Z,19.00
2023-03-22T14:00:41.558Z,17.50
2023-03-22T14:06:01.009Z,19.10
2023-03-22T14:08:40.233Z,19.50
2023-03-22T14:11:46.519Z,20.90
2023-03-22T14:14:29.125Z,18.10
2023-03-22T14:17:30.039Z,17.70
2023-03-22T14:20:00.178Z,21.70
